sensor_id;sensor_type;location;lat;lon;timestamp;temperature;humidity
23633;DHT22;11993;48.748;9.166;2022-09-03T00:02:27;17.60;55.20
23633;DHT22;11993;48.748;9.166;2022-09-03T00:05:10;17.60;55.20
23633;DHT22;11993;48.748;9.166;2022-09-03T00:07:56;17.60;55.30
23633;DHT22;11993;48.748;9.166;2022-09-03T00:13:28;17.60;55.40
23633;DHT22;11993;48.748;9.166;2022-09-03T00:15:57;17.60;55.60
23633;DHT22;11993;48.748;9.166;2022-09-03T00:18:27;17.60;55.30
23633;DHT22;11993;48.748;9.166;2022-09-03T00:21:02;17.60;55.60
23633;DHT22;11993;48.748;9.166;2022-09-03T00:23:34;17.60;55.50
23633;DHT22;11993;48.748;9.166;2022-09-03T00:26:17;17.60;55.90
23633;DHT22;11993;48.748;9.166;2022-09-03T00:28:57;17.60;55.70
23633;DHT22;11993;48.748;9.166;2022-09-03T00:31:44;17.60;55.70
23633;DHT22;11993;48.748;9.166;2022-09-03T00:34:31;17.60;55.90
23633;DHT22;11993;48.748;9.166;2022-09-03T00:36:58;17.70;55.60
23633;DHT22;11993;48.748;9.166;2022-09-03T00:39:25;17.70;55.60
23633;DHT22;11993;48.748;9.166;2022-09-03T00:47:29;17.80;55.40
23633;DHT22;11993;48.748;9.166;2022-09-03T00:55:49;17.70;55.90
23633;DHT22;11993;48.748;9.166;2022-09-03T01:07:04;17.70;56.20
23633;DHT22;11993;48.748;9.166;2022-09-03T01:09:52;17.60;56.30
23633;DHT22;11993;48.748;9.166;2022-09-03T01:12:35;17.60;56.50
23633;DHT22;11993;48.748;9.166;2022-09-03T01:15:14;17.50;56.70
23633;DHT22;11993;48.748;9.166;2022-09-03T01:18:17;17.50;56.80
23633;DHT22;11993;48.748;9.166;2022-09-03T01:24:01;17.60;56.60
23633;DHT22;11993;48.748;9.166;2022-09-03T01:26:50;17.60;56.50
23633;DHT22;11993;48.748;9.166;2022-09-03T01:29:27;17.50;56.90
23633;DHT22;11993;48.748;9.166;2022-09-03T01:32:06;17.40;57.20
23633;DHT22;11993;48.748;9.166;2022-09-03T01:45:57;17.50;56.90
23633;DHT22;11993;48.748;9.166;2022-09-03T01:48:49;17.50;57.00
23633;DHT22;11993;48.748;9.166;2022-09-03T01:51:23;17.50;57.20
23633;DHT22;11993;48.748;9.166;2022-09-03T01:59:52;17.40;57.10
23633;DHT22;11993;48.748;9.166;2022-09-03T02:02:24;17.30;57.60
23633;DHT22;11993;48.748;9.166;2022-09-03T02:05:04;17.30;57.50
23633;DHT22;11993;48.748;9.166;2022-09-03T02:10:14;17.30;57.80
23633;DHT22;11993;48.748;9.166;2022-09-03T02:12:43;17.20;58.20
23633;DHT22;11993;48.748;9.166;2022-09-03T02:15:13;17.10;58.60
23633;DHT22;11993;48.748;9.166;2022-09-03T02:17:41;17.10;58.70
23633;DHT22;11993;48.748;9.166;2022-09-03T02:20:10;17.10;58.50
23633;DHT22;11993;48.748;9.166;2022-09-03T02:22:38;17.20;58.60
23633;DHT22;11993;48.748;9.166;2022-09-03T02:25:05;17.20;58.70
23633;DHT22;11993;48.748;9.166;2022-09-03T02:27:31;17.20;58.70
23633;DHT22;11993;48.748;9.166;2022-09-03T02:29:57;17.00;59.20
23633;DHT22;11993;48.748;9.166;2022-09-03T02:32:23;17.10;59.20
23633;DHT22;11993;48.748;9.166;2022-09-03T02:34:49;17.10;59.20
23633;DHT22;11993;48.748;9.166;2022-09-03T02:37:16;17.00;59.30
23633;DHT22;11993;48.748;9.166;2022-09-03T02:39:43;17.00;59.40
23633;DHT22;11993;48.748;9.166;2022-09-03T02:42:11;17.00;59.60
23633;DHT22;11993;48.748;9.166;2022-09-03T02:44:59;16.90;60.00
23633;DHT22;11993;48.748;9.166;2022-09-03T02:47:30;16.90;60.00
23633;DHT22;11993;48.748;9.166;2022-09-03T02:49:57;16.80;60.20
23633;DHT22;11993;48.748;9.166;2022-09-03T02:52:23;16.80;60.30
23633;DHT22;11993;48.748;9.166;2022-09-03T02:54:48;16.80;60.20
23633;DHT22;11993;48.748;9.166;2022-09-03T02:57:15;16.80;60.30
23633;DHT22;11993;48.748;9.166;2022-09-03T02:59:42;17.00;59.90
23633;DHT22;11993;48.748;9.166;2022-09-03T03:02:12;16.90;60.10
23633;DHT22;11993;48.748;9.166;2022-09-03T03:04:38;16.90;60.20
23633;DHT22;11993;48.748;9.166;2022-09-03T03:07:05;16.80;60.50
23633;DHT22;11993;48.748;9.166;2022-09-03T03:09:30;16.70;60.60
23633;DHT22;11993;48.748;9.166;2022-09-03T03:11:56;16.60;61.10
23633;DHT22;11993;48.748;9.166;2022-09-03T03:14:21;16.60;61.10
23633;DHT22;11993;48.748;9.166;2022-09-03T03:16:49;16.60;61.20
23633;DHT22;11993;48.748;9.166;2022-09-03T03:19:14;16.60;61.00
23633;DHT22;11993;48.748;9.166;2022-09-03T03:21:40;16.70;61.30
23633;DHT22;11993;48.748;9.166;2022-09-03T03:24:06;16.70;61.30
23633;DHT22;11993;48.748;9.166;2022-09-03T03:26:32;16.70;61.20
23633;DHT22;11993;48.748;9.166;2022-09-03T03:28:59;16.60;61.40
23633;DHT22;11993;48.748;9.166;2022-09-03T03:31:26;16.60;61.60
23633;DHT22;11993;48.748;9.166;2022-09-03T03:33:57;16.50;62.00
23633;DHT22;11993;48.748;9.166;2022-09-03T03:36:25;16.60;61.90
23633;DHT22;11993;48.748;9.166;2022-09-03T03:38:55;16.40;62.40
23633;DHT22;11993;48.748;9.166;2022-09-03T03:41:24;16.40;62.50
23633;DHT22;11993;48.748;9.166;2022-09-03T03:43:54;16.50;62.40
23633;DHT22;11993;48.748;9.166;2022-09-03T03:46:20;16.50;62.20
23633;DHT22;11993;48.748;9.166;2022-09-03T03:48:48;16.50;62.50
23633;DHT22;11993;48.748;9.166;2022-09-03T03:51:14;16.50;62.60
23633;DHT22;11993;48.748;9.166;2022-09-03T03:53:40;16.50;62.80
23633;DHT22;11993;48.748;9.166;2022-09-03T03:56:08;16.40;63.00
23633;DHT22;11993;48.748;9.166;2022-09-03T03:58:34;16.40;63.30
23633;DHT22;11993;48.748;9.166;2022-09-03T04:01:05;16.40;63.10
23633;DHT22;11993;48.748;9.166;2022-09-03T04:03:31;16.40;63.30
23633;DHT22;11993;48.748;9.166;2022-09-03T04:05:57;16.30;63.60
23633;DHT22;11993;48.748;9.166;2022-09-03T04:08:24;16.30;63.90
23633;DHT22;11993;48.748;9.166;2022-09-03T04:10:50;16.30;63.90
23633;DHT22;11993;48.748;9.166;2022-09-03T04:13:16;16.20;64.40
23633;DHT22;11993;48.748;9.166;2022-09-03T04:15:42;16.20;64.40
23633;DHT22;11993;48.748;9.166;2022-09-03T04:18:07;16.30;64.50
23633;DHT22;11993;48.748;9.166;2022-09-03T04:20:35;16.30;64.30
23633;DHT22;11993;48.748;9.166;2022-09-03T04:23:01;16.30;64.60
23633;DHT22;11993;48.748;9.166;2022-09-03T04:25:26;16.10;65.30
23633;DHT22;11993;48.748;9.166;2022-09-03T04:27:52;16.10;65.30
23633;DHT22;11993;48.748;9.166;2022-09-03T04:30:18;16.20;65.30
23633;DHT22;11993;48.748;9.166;2022-09-03T04:32:44;16.20;65.60
23633;DHT22;11993;48.748;9.166;2022-09-03T04:35:23;16.20;65.70
23633;DHT22;11993;48.748;9.166;2022-09-03T04:37:50;16.20;66.20
23633;DHT22;11993;48.748;9.166;2022-09-03T04:40:16;16.20;66.10
23633;DHT22;11993;48.748;9.166;2022-09-03T04:42:42;16.20;66.50
23633;DHT22;11993;48.748;9.166;2022-09-03T04:45:08;16.20;66.70
23633;DHT22;11993;48.748;9.166;2022-09-03T04:47:34;16.30;66.90
23633;DHT22;11993;48.748;9.166;2022-09-03T04:50:02;16.30;66.80
23633;DHT22;11993;48.748;9.166;2022-09-03T04:52:28;16.40;66.90
23633;DHT22;11993;48.748;9.166;2022-09-03T04:54:56;16.40;67.00
23633;DHT22;11993;48.748;9.166;2022-09-03T04:57:22;16.30;67.20
23633;DHT22;11993;48.748;9.166;2022-09-03T04:59:47;16.30;67.20
23633;DHT22;11993;48.748;9.166;2022-09-03T05:02:13;16.40;66.80
23633;DHT22;11993;48.748;9.166;2022-09-03T05:04:40;16.30;66.70
23633;DHT22;11993;48.748;9.166;2022-09-03T05:07:05;16.20;66.80
23633;DHT22;11993;48.748;9.166;2022-09-03T05:09:31;16.20;67.10
23633;DHT22;11993;48.748;9.166;2022-09-03T05:11:57;16.20;67.00
23633;DHT22;11993;48.748;9.166;2022-09-03T05:14:22;16.10;67.10
23633;DHT22;11993;48.748;9.166;2022-09-03T05:16:48;16.10;67.20
23633;DHT22;11993;48.748;9.166;2022-09-03T05:19:14;16.00;67.60
23633;DHT22;11993;48.748;9.166;2022-09-03T05:21:40;16.00;67.80
23633;DHT22;11993;48.748;9.166;2022-09-03T05:24:07;16.00;67.90
23633;DHT22;11993;48.748;9.166;2022-09-03T05:26:37;16.00;68.10
23633;DHT22;11993;48.748;9.166;2022-09-03T05:29:04;16.10;67.80
23633;DHT22;11993;48.748;9.166;2022-09-03T05:31:32;16.10;67.90
23633;DHT22;11993;48.748;9.166;2022-09-03T05:34:00;16.10;67.70
23633;DHT22;11993;48.748;9.166;2022-09-03T05:36:28;16.10;67.80
23633;DHT22;11993;48.748;9.166;2022-09-03T05:38:55;16.20;67.80
23633;DHT22;11993;48.748;9.166;2022-09-03T05:41:22;16.20;67.60
23633;DHT22;11993;48.748;9.166;2022-09-03T05:43:49;16.30;67.40
23633;DHT22;11993;48.748;9.166;2022-09-03T05:46:22;16.20;67.80
23633;DHT22;11993;48.748;9.166;2022-09-03T05:49:14;16.40;67.50
23633;DHT22;11993;48.748;9.166;2022-09-03T05:51:39;16.50;67.10
23633;DHT22;11993;48.748;9.166;2022-09-03T05:54:05;16.60;66.80
23633;DHT22;11993;48.748;9.166;2022-09-03T05:56:32;16.60;67.10
23633;DHT22;11993;48.748;9.166;2022-09-03T05:59:01;16.60;66.90
23633;DHT22;11993;48.748;9.166;2022-09-03T06:01:31;16.60;67.20
23633;DHT22;11993;48.748;9.166;2022-09-03T06:03:58;16.60;67.50
23633;DHT22;11993;48.748;9.166;2022-09-03T06:06:25;16.60;67.50
23633;DHT22;11993;48.748;9.166;2022-09-03T06:08:56;16.70;67.60
23633;DHT22;11993;48.748;9.166;2022-09-03T06:11:23;16.70;67.80
23633;DHT22;11993;48.748;9.166;2022-09-03T06:13:56;16.60;68.20
23633;DHT22;11993;48.748;9.166;2022-09-03T06:16:23;16.80;67.70
23633;DHT22;11993;48.748;9.166;2022-09-03T06:18:49;16.80;67.80
23633;DHT22;11993;48.748;9.166;2022-09-03T06:21:15;16.90;67.90
23633;DHT22;11993;48.748;9.166;2022-09-03T06:23:41;16.80;68.10
23633;DHT22;11993;48.748;9.166;2022-09-03T06:26:09;16.70;68.60
23633;DHT22;11993;48.748;9.166;2022-09-03T06:28:37;16.70;68.60
23633;DHT22;11993;48.748;9.166;2022-09-03T06:31:05;16.90;68.30
23633;DHT22;11993;48.748;9.166;2022-09-03T06:33:33;17.00;67.80
23633;DHT22;11993;48.748;9.166;2022-09-03T06:36:00;17.00;68.20
23633;DHT22;11993;48.748;9.166;2022-09-03T06:38:28;16.90;68.40
23633;DHT22;11993;48.748;9.166;2022-09-03T06:40:57;17.00;67.90
23633;DHT22;11993;48.748;9.166;2022-09-03T06:43:27;17.00;68.10
23633;DHT22;11993;48.748;9.166;2022-09-03T06:45:59;17.00;68.00
23633;DHT22;11993;48.748;9.166;2022-09-03T06:48:26;17.10;68.00
23633;DHT22;11993;48.748;9.166;2022-09-03T06:50:57;17.10;67.80
23633;DHT22;11993;48.748;9.166;2022-09-03T06:53:28;17.10;68.10
23633;DHT22;11993;48.748;9.166;2022-09-03T06:55:59;17.10;67.90
23633;DHT22;11993;48.748;9.166;2022-09-03T06:58:32;17.20;67.70
23633;DHT22;11993;48.748;9.166;2022-09-03T07:01:07;17.30;67.60
23633;DHT22;11993;48.748;9.166;2022-09-03T07:03:33;17.40;67.70
23633;DHT22;11993;48.748;9.166;2022-09-03T07:06:04;17.50;67.90
23633;DHT22;11993;48.748;9.166;2022-09-03T07:08:32;17.60;67.90
23633;DHT22;11993;48.748;9.166;2022-09-03T07:10:59;17.60;68.30
23633;DHT22;11993;48.748;9.166;2022-09-03T07:13:25;17.50;68.60
23633;DHT22;11993;48.748;9.166;2022-09-03T07:16:09;17.60;68.40
23633;DHT22;11993;48.748;9.166;2022-09-03T07:18:35;17.70;68.40
23633;DHT22;11993;48.748;9.166;2022-09-03T07:21:08;17.80;68.40
23633;DHT22;11993;48.748;9.166;2022-09-03T07:23:35;17.80;68.40
23633;DHT22;11993;48.748;9.166;2022-09-03T07:26:04;17.90;68.60
23633;DHT22;11993;48.748;9.166;2022-09-03T07:28:34;17.90;68.80
23633;DHT22;11993;48.748;9.166;2022-09-03T07:31:03;18.00;68.20
23633;DHT22;11993;48.748;9.166;2022-09-03T07:33:29;18.10;68.00
23633;DHT22;11993;48.748;9.166;2022-09-03T07:36:06;18.20;67.70
23633;DHT22;11993;48.748;9.166;2022-09-03T07:38:33;18.30;67.70
23633;DHT22;11993;48.748;9.166;2022-09-03T07:41:01;18.40;67.60
23633;DHT22;11993;48.748;9.166;2022-09-03T07:43:28;18.50;67.40
23633;DHT22;11993;48.748;9.166;2022-09-03T07:45:55;18.60;67.10
23633;DHT22;11993;48.748;9.166;2022-09-03T07:48:22;18.60;67.30
23633;DHT22;11993;48.748;9.166;2022-09-03T07:50:47;18.70;67.20
23633;DHT22;11993;48.748;9.166;2022-09-03T07:53:15;18.80;66.70
23633;DHT22;11993;48.748;9.166;2022-09-03T07:55:42;18.70;66.80
23633;DHT22;11993;48.748;9.166;2022-09-03T07:58:08;18.80;66.70
23633;DHT22;11993;48.748;9.166;2022-09-03T08:00:36;18.70;66.90
23633;DHT22;11993;48.748;9.166;2022-09-03T08:03:01;18.80;67.10
23633;DHT22;11993;48.748;9.166;2022-09-03T08:05:31;18.90;67.00
23633;DHT22;11993;48.748;9.166;2022-09-03T08:07:59;19.10;66.60
23633;DHT22;11993;48.748;9.166;2022-09-03T08:10:25;19.30;66.40
23633;DHT22;11993;48.748;9.166;2022-09-03T08:12:52;19.40;66.40
23633;DHT22;11993;48.748;9.166;2022-09-03T08:15:18;19.50;66.20
23633;DHT22;11993;48.748;9.166;2022-09-03T08:17:44;19.70;65.70
23633;DHT22;11993;48.748;9.166;2022-09-03T08:20:09;19.90;65.10
23633;DHT22;11993;48.748;9.166;2022-09-03T08:22:35;19.90;65.00
23633;DHT22;11993;48.748;9.166;2022-09-03T08:25:02;20.10;64.80
23633;DHT22;11993;48.748;9.166;2022-09-03T08:27:27;20.20;64.80
23633;DHT22;11993;48.748;9.166;2022-09-03T08:29:54;20.50;64.70
23633;DHT22;11993;48.748;9.166;2022-09-03T08:32:20;20.70;63.80
23633;DHT22;11993;48.748;9.166;2022-09-03T08:34:45;21.00;63.30
23633;DHT22;11993;48.748;9.166;2022-09-03T08:37:11;21.00;62.60
23633;DHT22;11993;48.748;9.166;2022-09-03T08:39:37;21.30;61.90
23633;DHT22;11993;48.748;9.166;2022-09-03T08:42:18;21.50;61.30
23633;DHT22;11993;48.748;9.166;2022-09-03T08:44:53;21.60;61.30
23633;DHT22;11993;48.748;9.166;2022-09-03T08:50:25;22.10;59.90
23633;DHT22;11993;48.748;9.166;2022-09-03T08:53:16;22.40;59.40
23633;DHT22;11993;48.748;9.166;2022-09-03T08:55:54;22.40;59.70
23633;DHT22;11993;48.748;9.166;2022-09-03T08:58:32;22.30;59.70
23633;DHT22;11993;48.748;9.166;2022-09-03T09:06:24;22.20;59.10
23633;DHT22;11993;48.748;9.166;2022-09-03T09:14:37;22.20;59.70
23633;DHT22;11993;48.748;9.166;2022-09-03T09:22:46;22.00;60.70
23633;DHT22;11993;48.748;9.166;2022-09-03T09:25:16;21.90;61.30
23633;DHT22;11993;48.748;9.166;2022-09-03T09:27:51;21.90;60.90
23633;DHT22;11993;48.748;9.166;2022-09-03T09:30:20;21.90;60.80
23633;DHT22;11993;48.748;9.166;2022-09-03T09:32:46;22.00;61.10
23633;DHT22;11993;48.748;9.166;2022-09-03T09:35:12;22.20;60.50
23633;DHT22;11993;48.748;9.166;2022-09-03T09:37:53;22.60;59.80
23633;DHT22;11993;48.748;9.166;2022-09-03T09:40:43;23.60;57.70
23633;DHT22;11993;48.748;9.166;2022-09-03T09:43:14;24.40;55.10
23633;DHT22;11993;48.748;9.166;2022-09-03T09:45:49;25.00;53.80
23633;DHT22;11993;48.748;9.166;2022-09-03T09:50:47;26.00;49.70
23633;DHT22;11993;48.748;9.166;2022-09-03T09:53:16;26.50;49.60
23633;DHT22;11993;48.748;9.166;2022-09-03T09:55:55;26.30;49.00
23633;DHT22;11993;48.748;9.166;2022-09-03T09:58:24;25.80;49.50
23633;DHT22;11993;48.748;9.166;2022-09-03T10:03:23;24.90;51.90
23633;DHT22;11993;48.748;9.166;2022-09-03T10:06:08;24.80;52.40
23633;DHT22;11993;48.748;9.166;2022-09-03T10:09:06;24.60;52.50
23633;DHT22;11993;48.748;9.166;2022-09-03T10:11:34;24.50;52.60
23633;DHT22;11993;48.748;9.166;2022-09-03T10:14:08;24.60;52.70
23633;DHT22;11993;48.748;9.166;2022-09-03T10:16:38;24.60;52.50
23633;DHT22;11993;48.748;9.166;2022-09-03T10:19:11;24.40;52.00
23633;DHT22;11993;48.748;9.166;2022-09-03T10:21:43;24.10;53.10
23633;DHT22;11993;48.748;9.166;2022-09-03T10:26:41;24.00;54.10
23633;DHT22;11993;48.748;9.166;2022-09-03T10:29:09;24.10;53.80
23633;DHT22;11993;48.748;9.166;2022-09-03T10:34:31;24.00;53.60
23633;DHT22;11993;48.748;9.166;2022-09-03T10:40:13;24.30;52.60
23633;DHT22;11993;48.748;9.166;2022-09-03T10:45:42;25.00;50.80
23633;DHT22;11993;48.748;9.166;2022-09-03T10:50:51;26.00;48.60
23633;DHT22;11993;48.748;9.166;2022-09-03T10:56:10;26.00;48.40
23633;DHT22;11993;48.748;9.166;2022-09-03T11:07:19;25.20;50.10
23633;DHT22;11993;48.748;9.166;2022-09-03T11:12:49;24.80;51.50
23633;DHT22;11993;48.748;9.166;2022-09-03T11:15:28;24.60;51.30
23633;DHT22;11993;48.748;9.166;2022-09-03T11:18:23;24.10;53.20
23633;DHT22;11993;48.748;9.166;2022-09-03T11:20:53;23.90;53.30
23633;DHT22;11993;48.748;9.166;2022-09-03T11:23:21;23.60;53.70
23633;DHT22;11993;48.748;9.166;2022-09-03T11:25:55;23.50;53.80
23633;DHT22;11993;48.748;9.166;2022-09-03T11:28:56;23.40;53.90
23633;DHT22;11993;48.748;9.166;2022-09-03T11:31:24;23.10;55.00
23633;DHT22;11993;48.748;9.166;2022-09-03T11:34:05;23.00;55.60
23633;DHT22;11993;48.748;9.166;2022-09-03T11:36:34;22.80;55.60
23633;DHT22;11993;48.748;9.166;2022-09-03T11:39:00;22.90;55.70
23633;DHT22;11993;48.748;9.166;2022-09-03T11:41:37;22.80;56.30
23633;DHT22;11993;48.748;9.166;2022-09-03T11:44:18;22.60;56.70
23633;DHT22;11993;48.748;9.166;2022-09-03T11:46:57;22.50;57.20
23633;DHT22;11993;48.748;9.166;2022-09-03T11:49:29;22.20;57.90
23633;DHT22;11993;48.748;9.166;2022-09-03T11:52:03;22.20;58.40
23633;DHT22;11993;48.748;9.166;2022-09-03T11:54:42;22.30;58.20
23633;DHT22;11993;48.748;9.166;2022-09-03T11:57:12;22.30;58.00
23633;DHT22;11993;48.748;9.166;2022-09-03T11:59:40;22.10;58.50
23633;DHT22;11993;48.748;9.166;2022-09-03T12:05:16;21.80;60.00
23633;DHT22;11993;48.748;9.166;2022-09-03T12:10:23;21.40;62.10
23633;DHT22;11993;48.748;9.166;2022-09-03T12:16:37;21.00;65.40
23633;DHT22;11993;48.748;9.166;2022-09-03T12:19:44;20.90;66.50
23633;DHT22;11993;48.748;9.166;2022-09-03T12:22:14;20.80;68.00
23633;DHT22;11993;48.748;9.166;2022-09-03T12:24:41;20.80;68.60
23633;DHT22;11993;48.748;9.166;2022-09-03T12:27:14;20.60;69.80
23633;DHT22;11993;48.748;9.166;2022-09-03T12:29:56;19.80;73.20
23633;DHT22;11993;48.748;9.166;2022-09-03T12:32:28;19.10;76.20
23633;DHT22;11993;48.748;9.166;2022-09-03T12:34:55;18.60;78.20
23633;DHT22;11993;48.748;9.166;2022-09-03T12:37:23;18.50;78.80
23633;DHT22;11993;48.748;9.166;2022-09-03T12:39:54;18.30;80.10
23633;DHT22;11993;48.748;9.166;2022-09-03T12:42:25;18.30;79.80
23633;DHT22;11993;48.748;9.166;2022-09-03T12:44:52;18.40;79.20
23633;DHT22;11993;48.748;9.166;2022-09-03T12:47:20;18.40;79.60
23633;DHT22;11993;48.748;9.166;2022-09-03T12:49:48;18.20;77.80
23633;DHT22;11993;48.748;9.166;2022-09-03T12:52:33;18.20;78.60
23633;DHT22;11993;48.748;9.166;2022-09-03T12:55:05;18.10;79.10
23633;DHT22;11993;48.748;9.166;2022-09-03T12:57:44;18.10;79.30
23633;DHT22;11993;48.748;9.166;2022-09-03T13:00:15;18.10;80.00
23633;DHT22;11993;48.748;9.166;2022-09-03T13:02:59;18.10;80.00
23633;DHT22;11993;48.748;9.166;2022-09-03T13:05:35;18.10;80.10
23633;DHT22;11993;48.748;9.166;2022-09-03T13:08:07;18.20;80.20
23633;DHT22;11993;48.748;9.166;2022-09-03T13:10:39;18.40;80.40
23633;DHT22;11993;48.748;9.166;2022-09-03T13:13:29;18.40;79.90
23633;DHT22;11993;48.748;9.166;2022-09-03T13:16:11;18.50;79.80
23633;DHT22;11993;48.748;9.166;2022-09-03T13:19:03;18.60;79.60
23633;DHT22;11993;48.748;9.166;2022-09-03T13:21:40;18.50;79.30
23633;DHT22;11993;48.748;9.166;2022-09-03T13:24:31;18.30;80.00
23633;DHT22;11993;48.748;9.166;2022-09-03T13:27:22;18.40;80.10
23633;DHT22;11993;48.748;9.166;2022-09-03T13:30:14;18.30;79.50
23633;DHT22;11993;48.748;9.166;2022-09-03T13:32:51;18.30;80.20
23633;DHT22;11993;48.748;9.166;2022-09-03T13:35:37;18.50;80.40
23633;DHT22;11993;48.748;9.166;2022-09-03T13:40:59;18.50;77.10
23633;DHT22;11993;48.748;9.166;2022-09-03T13:43:40;19.00;77.20
23633;DHT22;11993;48.748;9.166;2022-09-03T13:58:04;19.60;75.10
23633;DHT22;11993;48.748;9.166;2022-09-03T14:00:46;19.80;74.70
23633;DHT22;11993;48.748;9.166;2022-09-03T14:03:42;19.50;73.60
23633;DHT22;11993;48.748;9.166;2022-09-03T14:06:23;19.50;74.90
23633;DHT22;11993;48.748;9.166;2022-09-03T14:11:54;19.30;75.80
23633;DHT22;11993;48.748;9.166;2022-09-03T14:14:52;20.00;74.00
23633;DHT22;11993;48.748;9.166;2022-09-03T14:17:40;20.60;73.20
23633;DHT22;11993;48.748;9.166;2022-09-03T14:22:48;21.00;72.20
23633;DHT22;11993;48.748;9.166;2022-09-03T14:25:17;20.90;72.20
23633;DHT22;11993;48.748;9.166;2022-09-03T14:27:46;21.10;71.40
23633;DHT22;11993;48.748;9.166;2022-09-03T14:33:03;20.90;69.90
23633;DHT22;11993;48.748;9.166;2022-09-03T14:36:01;20.80;70.80
23633;DHT22;11993;48.748;9.166;2022-09-03T14:39:07;20.70;69.90
23633;DHT22;11993;48.748;9.166;2022-09-03T14:42:10;20.40;71.40
23633;DHT22;11993;48.748;9.166;2022-09-03T14:47:45;20.20;73.10
23633;DHT22;11993;48.748;9.166;2022-09-03T14:53:13;20.70;71.10
23633;DHT22;11993;48.748;9.166;2022-09-03T14:58:59;21.60;67.80
23633;DHT22;11993;48.748;9.166;2022-09-03T15:01:33;21.60;68.10
23633;DHT22;11993;48.748;9.166;2022-09-03T15:07:07;21.60;68.00
23633;DHT22;11993;48.748;9.166;2022-09-03T15:09:53;22.00;67.10
23633;DHT22;11993;48.748;9.166;2022-09-03T15:15:03;22.10;66.60
23633;DHT22;11993;48.748;9.166;2022-09-03T15:20:44;22.60;65.70
23633;DHT22;11993;48.748;9.166;2022-09-03T15:23:39;22.20;65.80
23633;DHT22;11993;48.748;9.166;2022-09-03T15:29:11;21.90;66.20
23633;DHT22;11993;48.748;9.166;2022-09-03T15:37:24;22.20;66.20
23633;DHT22;11993;48.748;9.166;2022-09-03T15:40:24;22.10;66.50
23633;DHT22;11993;48.748;9.166;2022-09-03T15:43:03;22.20;65.80
23633;DHT22;11993;48.748;9.166;2022-09-03T15:45:52;22.00;66.70
23633;DHT22;11993;48.748;9.166;2022-09-03T15:51:32;22.00;67.20
23633;DHT22;11993;48.748;9.166;2022-09-03T15:54:18;22.00;66.60
23633;DHT22;11993;48.748;9.166;2022-09-03T15:57:09;21.90;67.10
23633;DHT22;11993;48.748;9.166;2022-09-03T16:03:34;21.70;67.50
23633;DHT22;11993;48.748;9.166;2022-09-03T16:05:25;21.80;67.70
23633;DHT22;11993;48.748;9.166;2022-09-03T16:11:06;21.90;67.80
23633;DHT22;11993;48.748;9.166;2022-09-03T16:16:30;21.90;67.50
23633;DHT22;11993;48.748;9.166;2022-09-03T16:19:29;21.90;67.30
23633;DHT22;11993;48.748;9.166;2022-09-03T16:22:06;21.80;68.20
23633;DHT22;11993;48.748;9.166;2022-09-03T16:24:47;21.90;69.30
23633;DHT22;11993;48.748;9.166;2022-09-03T16:27:24;21.70;70.20
23633;DHT22;11993;48.748;9.166;2022-09-03T16:30:10;21.60;70.80
23633;DHT22;11993;48.748;9.166;2022-09-03T16:35:26;21.50;71.80
23633;DHT22;11993;48.748;9.166;2022-09-03T16:38:05;21.50;72.10
23633;DHT22;11993;48.748;9.166;2022-09-03T16:40:45;21.40;72.20
23633;DHT22;11993;48.748;9.166;2022-09-03T16:46:15;21.30;71.90
23633;DHT22;11993;48.748;9.166;2022-09-03T16:51:53;21.20;72.20
23633;DHT22;11993;48.748;9.166;2022-09-03T16:57:31;21.20;71.90
23633;DHT22;11993;48.748;9.166;2022-09-03T17:00:07;21.20;72.00
23633;DHT22;11993;48.748;9.166;2022-09-03T17:02:50;21.30;71.70
23633;DHT22;11993;48.748;9.166;2022-09-03T17:05:58;21.30;71.80
23633;DHT22;11993;48.748;9.166;2022-09-03T17:08:54;21.40;71.40
23633;DHT22;11993;48.748;9.166;2022-09-03T17:11:42;21.20;72.10
23633;DHT22;11993;48.748;9.166;2022-09-03T17:14:26;21.00;72.90
23633;DHT22;11993;48.748;9.166;2022-09-03T17:22:22;21.10;72.40
23633;DHT22;11993;48.748;9.166;2022-09-03T17:24:52;21.00;72.70
23633;DHT22;11993;48.748;9.166;2022-09-03T17:27:32;21.00;73.00
23633;DHT22;11993;48.748;9.166;2022-09-03T17:30:14;21.00;73.10
23633;DHT22;11993;48.748;9.166;2022-09-03T17:32:52;21.00;73.00
23633;DHT22;11993;48.748;9.166;2022-09-03T17:44:03;20.80;74.50
23633;DHT22;11993;48.748;9.166;2022-09-03T17:46:48;20.70;74.80
23633;DHT22;11993;48.748;9.166;2022-09-03T17:49:32;20.60;75.20
23633;DHT22;11993;48.748;9.166;2022-09-03T17:52:20;20.60;75.60
23633;DHT22;11993;48.748;9.166;2022-09-03T17:54:54;20.50;75.70
23633;DHT22;11993;48.748;9.166;2022-09-03T17:57:25;20.50;75.90
23633;DHT22;11993;48.748;9.166;2022-09-03T18:00:02;20.50;75.90
23633;DHT22;11993;48.748;9.166;2022-09-03T18:03:23;20.30;76.30
23633;DHT22;11993;48.748;9.166;2022-09-03T18:05:32;20.30;76.40
23633;DHT22;11993;48.748;9.166;2022-09-03T18:11:12;20.30;76.20
23633;DHT22;11993;48.748;9.166;2022-09-03T18:13:59;20.30;76.20
23633;DHT22;11993;48.748;9.166;2022-09-03T18:16:31;20.30;76.40
23633;DHT22;11993;48.748;9.166;2022-09-03T18:19:07;20.30;76.40
23633;DHT22;11993;48.748;9.166;2022-09-03T18:21:42;20.30;76.20
23633;DHT22;11993;48.748;9.166;2022-09-03T18:25:05;20.30;76.10
23633;DHT22;11993;48.748;9.166;2022-09-03T18:28:04;20.20;76.20
23633;DHT22;11993;48.748;9.166;2022-09-03T18:30:49;20.20;76.50
23633;DHT22;11993;48.748;9.166;2022-09-03T18:33:33;20.10;76.60
23633;DHT22;11993;48.748;9.166;2022-09-03T18:36:17;20.10;76.70
23633;DHT22;11993;48.748;9.166;2022-09-03T18:42:10;20.10;76.80
23633;DHT22;11993;48.748;9.166;2022-09-03T18:48:11;20.00;76.70
23633;DHT22;11993;48.748;9.166;2022-09-03T18:51:23;20.00;76.70
23633;DHT22;11993;48.748;9.166;2022-09-03T18:54:34;20.00;76.80
23633;DHT22;11993;48.748;9.166;2022-09-03T18:57:34;20.00;77.10
23633;DHT22;11993;48.748;9.166;2022-09-03T19:00:21;19.90;77.20
23633;DHT22;11993;48.748;9.166;2022-09-03T19:12:54;19.70;77.60
23633;DHT22;11993;48.748;9.166;2022-09-03T19:15:51;19.70;77.60
23633;DHT22;11993;48.748;9.166;2022-09-03T19:22:00;19.70;77.50
23633;DHT22;11993;48.748;9.166;2022-09-03T19:24:51;19.70;77.40
23633;DHT22;11993;48.748;9.166;2022-09-03T19:27:58;19.70;77.50
23633;DHT22;11993;48.748;9.166;2022-09-03T19:34:08;19.70;77.50
23633;DHT22;11993;48.748;9.166;2022-09-03T19:46:11;19.60;77.70
23633;DHT22;11993;48.748;9.166;2022-09-03T19:55:02;19.50;77.80
23633;DHT22;11993;48.748;9.166;2022-09-03T19:57:51;19.60;77.80
23633;DHT22;11993;48.748;9.166;2022-09-03T20:00:36;19.50;77.90
23633;DHT22;11993;48.748;9.166;2022-09-03T20:03:20;19.40;77.90
23633;DHT22;11993;48.748;9.166;2022-09-03T20:06:05;19.40;78.00
23633;DHT22;11993;48.748;9.166;2022-09-03T20:08:51;19.40;78.00
23633;DHT22;11993;48.748;9.166;2022-09-03T20:11:36;19.40;78.00
23633;DHT22;11993;48.748;9.166;2022-09-03T20:14:08;19.40;77.90